createdAt,value
2023-04-26T00:01:04.168Z,71.54
2023-04-26T00:02:06.302Z,71.40
2023-04-26T00:03:08.638Z,71.39
2023-04-26T00:04:11.086Z,71.39
2023-04-26T00:05:14.436Z,71.38
2023-04-26T00:06:16.683Z,71.06
2023-04-26T00:07:19.422Z,71.32
2023-04-26T00:08:21.514Z,71.94
2023-04-26T00:09:23.689Z,71.25
2023-04-26T00:10:25.779Z,71.22
2023-04-26T00:11:27.856Z,71.15
2023-04-26T00:12:29.933Z,71.22
2023-04-26T00:13:32.194Z,71.19
2023-04-26T00:14:34.298Z,71.32
2023-04-26T00:15:36.712Z,71.41
2023-04-26T00:16:38.822Z,71.46
2023-04-26T00:17:41.252Z,71.36
2023-04-26T00:18:43.429Z,71.58
2023-04-26T00:19:45.537Z,71.59
2023-04-26T00:20:47.659Z,71.72
2023-04-26T00:21:49.749Z,71.85
2023-04-26T00:22:51.850Z,71.59
2023-04-26T00:23:53.977Z,71.98
2023-04-26T00:24:56.143Z,72.07
2023-04-26T00:25:58.240Z,72.34
2023-04-26T00:27:01.492Z,72.25
2023-04-26T00:28:04.101Z,72.30
2023-04-26T00:29:06.185Z,72.48
2023-04-26T00:30:09.231Z,72.23
2023-04-26T00:31:15.744Z,72.04
2023-04-26T00:32:17.879Z,71.85
2023-04-26T00:33:38.251Z,71.77
2023-04-26T00:34:40.509Z,71.67
2023-04-26T00:35:42.712Z,71.57
2023-04-26T00:36:44.879Z,71.59
2023-04-26T00:37:47.112Z,71.71
2023-04-26T00:38:49.378Z,71.73
2023-04-26T00:39:51.587Z,71.76
2023-04-26T00:40:53.693Z,71.70
2023-04-26T00:41:56.145Z,71.62
2023-04-26T00:42:59.062Z,71.86
2023-04-26T00:44:01.208Z,72.23
2023-04-26T00:45:04.065Z,71.98
2023-04-26T00:46:07.193Z,72.31
2023-04-26T00:47:09.590Z,72.22
2023-04-26T00:48:12.263Z,72.01
2023-04-26T00:49:19.405Z,72.12
2023-04-26T00:50:21.508Z,72.36
2023-04-26T00:51:23.622Z,72.52
2023-04-26T00:52:26.680Z,72.78
2023-04-26T00:53:30.941Z,72.67
2023-04-26T00:54:33.111Z,72.79
2023-04-26T00:55:35.463Z,72.80
2023-04-26T00:56:38.850Z,72.86
2023-04-26T00:57:40.968Z,72.84
2023-04-26T00:58:43.291Z,73.17
2023-04-26T00:59:45.399Z,73.00
2023-04-26T01:00:47.965Z,73.28
2023-04-26T01:01:50.228Z,73.69
2023-04-26T01:02:52.963Z,73.51
2023-04-26T01:03:55.588Z,73.42
2023-04-26T01:04:57.849Z,73.33
2023-04-26T01:05:59.964Z,73.17
2023-04-26T01:07:02.879Z,73.53
2023-04-26T01:08:05.167Z,73.27
2023-04-26T01:09:09.584Z,73.42
2023-04-26T01:10:11.804Z,73.50
2023-04-26T01:11:14.837Z,73.58
2023-04-26T01:12:17.334Z,73.85
2023-04-26T01:13:19.429Z,73.77
2023-04-26T01:14:22.038Z,74.01
2023-04-26T01:15:24.943Z,74.18
2023-04-26T01:16:28.359Z,73.88
2023-04-26T01:17:31.062Z,74.02
2023-04-26T01:18:33.324Z,73.86
2023-04-26T01:19:37.553Z,73.65
2023-04-26T01:20:40.287Z,73.71
2023-04-26T01:21:42.812Z,74.02
2023-04-26T01:22:44.975Z,74.14
2023-04-26T01:23:47.060Z,74.53
2023-04-26T01:24:51.299Z,74.51
2023-04-26T01:25:53.913Z,74.13
2023-04-26T01:26:56.258Z,73.96
2023-04-26T01:27:58.381Z,74.08
2023-04-26T01:29:00.473Z,73.93
2023-04-26T01:30:02.644Z,74.45
2023-04-26T01:31:04.940Z,74.41
2023-04-26T01:32:07.353Z,74.51
2023-04-26T01:33:09.492Z,74.44
2023-04-26T01:34:12.017Z,74.36
2023-04-26T01:35:14.134Z,74.15
2023-04-26T01:36:16.391Z,74.47
2023-04-26T01:37:18.476Z,74.66
2023-04-26T01:38:20.816Z,74.64
2023-04-26T01:39:22.896Z,74.97
2023-04-26T01:40:25.036Z,74.63
2023-04-26T01:41:27.178Z,74.74
2023-04-26T01:42:29.286Z,74.60
2023-04-26T01:43:31.537Z,74.57
2023-04-26T01:44:33.697Z,74.32
2023-04-26T01:45:35.945Z,74.30
2023-04-26T01:46:38.178Z,74.31
2023-04-26T01:47:40.405Z,73.97
2023-04-26T01:48:42.545Z,73.98
2023-04-26T01:49:44.638Z,73.91
2023-04-26T01:50:46.835Z,73.73
2023-04-26T01:51:48.958Z,73.70
2023-04-26T01:52:51.542Z,73.31
2023-04-26T01:53:53.695Z,73.28
2023-04-26T01:54:55.900Z,73.17
2023-04-26T01:56:01.607Z,72.85
2023-04-26T01:57:03.796Z,72.74
2023-04-26T01:58:05.921Z,72.92
2023-04-26T01:59:08.055Z,73.14
2023-04-26T02:00:10.532Z,73.09
2023-04-26T02:01:12.652Z,73.31
2023-04-26T02:02:17.436Z,72.79
2023-04-26T02:03:19.563Z,72.88
2023-04-26T02:04:21.715Z,72.39
2023-04-26T02:05:24.504Z,72.45
2023-04-26T02:06:26.721Z,72.20
2023-04-26T02:07:28.831Z,72.00
2023-04-26T02:08:31.032Z,72.20
2023-04-26T02:09:33.173Z,71.63
2023-04-26T02:10:35.470Z,71.92
2023-04-26T02:11:37.670Z,71.61
2023-04-26T02:12:39.785Z,71.66
2023-04-26T02:13:41.870Z,71.70
2023-04-26T02:14:44.043Z,71.65
2023-04-26T02:15:47.134Z,71.15
2023-04-26T02:16:49.276Z,71.55
2023-04-26T02:17:53.701Z,71.73
2023-04-26T02:18:55.906Z,71.40
2023-04-26T02:19:58.024Z,71.44
2023-04-26T02:21:00.132Z,71.21
2023-04-26T02:22:02.361Z,71.06
2023-04-26T02:23:04.442Z,71.10
2023-04-26T02:24:06.720Z,71.27
2023-04-26T02:25:08.972Z,71.11
2023-04-26T02:26:12.734Z,70.82
2023-04-26T02:27:14.896Z,70.98
2023-04-26T02:28:17.013Z,70.85
2023-04-26T02:29:21.241Z,70.61
2023-04-26T02:30:28.943Z,70.19
2023-04-26T02:31:31.052Z,69.99
2023-04-26T02:32:33.248Z,69.93
2023-04-26T02:33:35.563Z,69.76
2023-04-26T02:34:37.730Z,70.09
2023-04-26T02:35:39.827Z,70.38
2023-04-26T02:36:41.971Z,70.40
2023-04-26T02:37:44.070Z,70.16
2023-04-26T02:38:46.488Z,70.04
2023-04-26T02:39:51.665Z,70.22
2023-04-26T02:41:00.637Z,70.21
2023-04-26T02:42:02.815Z,70.24
2023-04-26T02:43:04.899Z,70.15
2023-04-26T02:44:08.341Z,70.07
2023-04-26T02:45:10.683Z,70.02
2023-04-26T02:46:12.849Z,70.41
2023-04-26T02:47:15.925Z,70.53
2023-04-26T02:48:18.007Z,70.33
2023-04-26T02:49:20.123Z,70.02
2023-04-26T02:50:22.478Z,70.23
2023-04-26T02:51:24.595Z,70.36
2023-04-26T02:52:26.846Z,69.71
2023-04-26T02:53:28.936Z,69.69
2023-04-26T02:54:31.253Z,69.94
2023-04-26T02:55:33.460Z,69.82
2023-04-26T02:56:35.688Z,69.89
2023-04-26T02:57:37.796Z,69.88
2023-04-26T02:58:39.930Z,69.68
2023-04-26T02:59:42.049Z,69.77
2023-04-26T03:00:50.616Z,69.76
2023-04-26T03:01:52.768Z,69.95
2023-04-26T03:02:55.029Z,69.75
2023-04-26T03:03:57.364Z,69.68
2023-04-26T03:04:59.538Z,69.74
2023-04-26T03:06:01.780Z,69.83
2023-04-26T03:07:04.294Z,69.70
2023-04-26T03:08:07.257Z,69.47
2023-04-26T03:09:09.413Z,69.63
2023-04-26T03:10:11.688Z,69.88
2023-04-26T03:11:13.931Z,69.72
2023-04-26T03:12:16.013Z,69.76
2023-04-26T03:13:18.137Z,69.49
2023-04-26T03:14:20.249Z,69.62
2023-04-26T03:15:22.343Z,69.58
2023-04-26T03:16:24.497Z,69.46
2023-04-26T03:17:26.869Z,69.66
2023-04-26T03:18:29.014Z,70.01
2023-04-26T03:19:31.157Z,69.71
2023-04-26T03:20:33.283Z,69.79
2023-04-26T03:21:35.417Z,69.49
2023-04-26T03:22:37.601Z,69.67
2023-04-26T03:23:39.760Z,69.58
2023-04-26T03:24:44.948Z,69.24
2023-04-26T03:25:47.200Z,69.18
2023-04-26T03:26:49.329Z,69.36
2023-04-26T03:27:51.485Z,69.39
2023-04-26T03:28:53.968Z,69.50
2023-04-26T03:29:56.221Z,69.71
2023-04-26T03:30:58.438Z,69.65
2023-04-26T03:32:00.675Z,69.97
2023-04-26T03:33:02.955Z,69.75
2023-04-26T03:34:05.453Z,69.88
2023-04-26T03:35:07.879Z,69.94
2023-04-26T03:36:09.977Z,69.63
2023-04-26T03:37:12.164Z,69.85
2023-04-26T03:38:14.362Z,70.30
2023-04-26T03:39:16.598Z,70.03
2023-04-26T03:40:18.709Z,70.20
2023-04-26T03:41:21.091Z,70.51
2023-04-26T03:42:23.254Z,70.54
2023-04-26T03:43:25.324Z,70.32
2023-04-26T03:44:28.737Z,70.47
2023-04-26T03:45:32.718Z,70.49
2023-04-26T03:46:34.831Z,70.64
2023-04-26T03:47:37.008Z,70.21
2023-04-26T03:48:39.257Z,70.25
2023-04-26T03:49:42.041Z,70.35
2023-04-26T03:50:45.080Z,70.29
2023-04-26T03:51:47.164Z,70.57
2023-04-26T03:52:49.314Z,70.29
2023-04-26T03:53:51.784Z,70.09
2023-04-26T03:54:53.860Z,70.59
2023-04-26T03:55:56.541Z,70.33
2023-04-26T03:56:58.640Z,70.78
2023-04-26T03:58:00.719Z,70.33
2023-04-26T03:59:03.032Z,70.68
2023-04-26T04:00:13.781Z,70.83
2023-04-26T04:01:15.999Z,70.88
2023-04-26T04:02:18.175Z,70.83
2023-04-26T04:03:21.589Z,71.03
2023-04-26T04:04:24.107Z,70.59
2023-04-26T04:05:26.818Z,70.62
2023-04-26T04:06:28.954Z,70.54
2023-04-26T04:07:32.898Z,70.62
2023-04-26T04:08:35.028Z,70.60
2023-04-26T04:09:37.130Z,70.58
2023-04-26T04:10:39.224Z,70.28
2023-04-26T04:11:41.313Z,70.61
2023-04-26T04:12:43.465Z,70.50
2023-04-26T04:13:46.093Z,70.47
2023-04-26T04:14:48.170Z,70.33
2023-04-26T04:15:51.821Z,70.46
2023-04-26T04:16:53.931Z,70.13
2023-04-26T04:17:56.111Z,70.31
2023-04-26T04:18:58.562Z,70.13
2023-04-26T04:20:02.134Z,69.79
2023-04-26T04:21:04.310Z,69.49
2023-04-26T04:22:07.075Z,69.33
2023-04-26T04:23:09.947Z,68.88
2023-04-26T04:24:12.991Z,69.63
2023-04-26T04:25:15.139Z,68.89
2023-04-26T04:26:17.555Z,68.71
2023-04-26T04:27:21.191Z,68.46
2023-04-26T04:28:23.862Z,68.40
2023-04-26T04:29:25.918Z,68.06
2023-04-26T04:30:29.525Z,68.05
2023-04-26T04:31:31.655Z,68.05
2023-04-26T04:32:33.999Z,67.98
2023-04-26T04:33:36.286Z,67.86
2023-04-26T04:34:38.478Z,67.85
2023-04-26T04:35:43.456Z,67.41
2023-04-26T04:36:45.572Z,67.41
2023-04-26T04:37:47.725Z,66.60
2023-04-26T04:38:50.046Z,66.23
2023-04-26T04:39:53.196Z,66.28
2023-04-26T04:40:55.315Z,66.82
2023-04-26T04:41:58.393Z,66.28
2023-04-26T04:43:03.371Z,66.15
2023-04-26T04:44:05.488Z,66.18
2023-04-26T04:45:08.122Z,65.80
2023-04-26T04:46:12.566Z,65.99
2023-04-26T04:47:15.315Z,65.88
2023-04-26T04:48:18.585Z,65.81
2023-04-26T04:49:20.980Z,65.58
2023-04-26T04:50:23.580Z,65.38
2023-04-26T04:51:25.995Z,65.46
2023-04-26T04:52:28.128Z,65.33
2023-04-26T04:53:30.322Z,65.74
2023-04-26T04:54:32.429Z,65.46
2023-04-26T04:55:35.006Z,65.39
2023-04-26T04:56:37.074Z,65.52
2023-04-26T04:57:40.692Z,65.83
2023-04-26T04:58:44.751Z,65.68
2023-04-26T04:59:46.867Z,65.82
2023-04-26T05:00:49.194Z,65.93
2023-04-26T05:01:51.359Z,65.92
2023-04-26T05:02:53.562Z,66.33
2023-04-26T05:03:56.004Z,66.13
2023-04-26T05:04:58.412Z,66.62
2023-04-26T05:06:01.391Z,66.75
2023-04-26T05:07:03.476Z,66.42
2023-04-26T05:08:07.942Z,66.88
2023-04-26T05:09:10.401Z,66.94
2023-04-26T05:10:12.751Z,66.61
2023-04-26T05:11:14.860Z,66.97
2023-04-26T05:12:16.912Z,67.00
2023-04-26T05:13:19.016Z,66.70
2023-04-26T05:14:21.123Z,66.63
2023-04-26T05:15:23.211Z,66.34
2023-04-26T05:16:25.582Z,66.50
2023-04-26T05:17:27.745Z,66.55
2023-04-26T05:18:29.968Z,66.61
2023-04-26T05:19:32.054Z,66.68
2023-04-26T05:20:34.151Z,66.68
2023-04-26T05:21:36.569Z,66.24
2023-04-26T05:22:39.847Z,66.31
2023-04-26T05:23:42.193Z,66.32
2023-04-26T05:25:48.479Z,66.40
2023-04-26T05:26:50.606Z,66.34
2023-04-26T05:27:52.702Z,66.06
2023-04-26T05:28:54.884Z,66.04
2023-04-26T05:29:57.070Z,65.85
2023-04-26T05:30:59.525Z,65.97
2023-04-26T05:32:01.666Z,66.01
2023-04-26T05:33:03.868Z,65.91
2023-04-26T05:34:06.118Z,65.98
2023-04-26T05:35:08.995Z,65.31
2023-04-26T05:36:11.187Z,65.49
2023-04-26T05:37:13.341Z,64.78
2023-04-26T05:38:15.490Z,64.69
2023-04-26T05:39:19.102Z,64.45
2023-04-26T05:40:21.175Z,64.47
2023-04-26T05:41:23.290Z,63.99
2023-04-26T05:42:25.567Z,63.75
2023-04-26T05:43:27.712Z,63.46
2023-04-26T05:44:29.988Z,63.71
2023-04-26T05:45:32.155Z,63.75
2023-04-26T05:46:34.278Z,63.88
2023-04-26T05:47:37.004Z,63.36
2023-04-26T05:48:39.437Z,63.32
2023-04-26T05:49:41.614Z,63.33
2023-04-26T05:50:43.672Z,63.10
2023-04-26T05:51:45.844Z,63.02
2023-04-26T05:52:47.950Z,62.65
2023-04-26T05:53:50.276Z,62.54
2023-04-26T05:54:52.545Z,62.22
2023-04-26T05:55:54.771Z,62.32
2023-04-26T05:56:58.951Z,61.81
2023-04-26T05:58:01.384Z,61.54
2023-04-26T05:59:03.536Z,61.40
2023-04-26T06:00:09.786Z,61.15
2023-04-26T06:01:12.438Z,61.16
2023-04-26T06:02:14.603Z,61.26
2023-04-26T06:03:17.062Z,61.15
2023-04-26T06:04:19.649Z,60.32
2023-04-26T06:05:22.102Z,60.46
2023-04-26T06:06:24.279Z,60.23
2023-04-26T06:07:26.371Z,59.83
2023-04-26T06:08:28.697Z,59.77
2023-04-26T06:09:33.694Z,59.58
2023-04-26T06:10:36.392Z,59.17
2023-04-26T06:11:38.500Z,59.06
2023-04-26T06:12:40.886Z,59.06
2023-04-26T06:13:43.007Z,58.84
2023-04-26T06:14:45.133Z,58.99
2023-04-26T06:15:47.347Z,58.65
2023-04-26T06:16:49.525Z,58.07
2023-04-26T06:17:51.676Z,58.50
2023-04-26T06:18:53.792Z,58.44
2023-04-26T06:19:56.173Z,58.82
2023-04-26T06:20:58.532Z,57.78
2023-04-26T06:22:00.748Z,57.31
2023-04-26T06:23:02.937Z,57.11
2023-04-26T06:24:05.436Z,57.21
2023-04-26T06:25:08.929Z,56.57
2023-04-26T06:26:11.092Z,56.74
2023-04-26T06:27:13.209Z,56.25
2023-04-26T06:28:15.288Z,56.64
2023-04-26T06:29:17.546Z,56.88
2023-04-26T06:30:19.753Z,56.50
2023-04-26T06:31:22.906Z,55.68
2023-04-26T06:32:25.170Z,56.10
2023-04-26T06:33:27.294Z,56.07
2023-04-26T06:34:30.413Z,55.83
2023-04-26T06:35:32.548Z,55.72
2023-04-26T06:36:34.663Z,55.25
2023-04-26T06:37:37.682Z,54.54
2023-04-26T06:38:39.850Z,54.62
2023-04-26T06:39:41.985Z,53.54
2023-04-26T06:40:44.061Z,53.92
2023-04-26T06:41:46.201Z,53.74
2023-04-26T06:42:48.531Z,53.50
2023-04-26T06:43:50.926Z,53.17
2023-04-26T06:44:53.177Z,52.97
2023-04-26T06:45:55.397Z,53.35
2023-04-26T06:46:57.718Z,53.06
2023-04-26T06:48:04.863Z,52.47
2023-04-26T06:49:07.065Z,52.63
2023-04-26T06:50:09.797Z,52.42
2023-04-26T06:51:11.994Z,52.07
2023-04-26T06:52:14.140Z,51.72
2023-04-26T06:53:16.201Z,51.67
2023-04-26T06:54:19.080Z,51.32
2023-04-26T06:55:21.452Z,50.89
2023-04-26T06:56:23.781Z,51.08
2023-04-26T06:57:26.188Z,51.23
2023-04-26T06:58:28.346Z,50.57
2023-04-26T06:59:30.511Z,49.52
2023-04-26T07:00:32.626Z,49.25
2023-04-26T07:01:35.504Z,49.15
2023-04-26T07:02:38.009Z,49.84
2023-04-26T07:03:42.764Z,49.82
2023-04-26T07:04:45.193Z,49.26
2023-04-26T07:05:51.008Z,49.82
2023-04-26T07:06:53.127Z,49.96
2023-04-26T07:07:55.460Z,48.19
2023-04-26T07:09:01.458Z,48.35
2023-04-26T07:10:04.320Z,47.99
2023-04-26T07:11:13.479Z,46.29
2023-04-26T07:12:15.728Z,45.29
2023-04-26T07:13:17.815Z,44.42
2023-04-26T07:14:19.918Z,43.66
2023-04-26T07:15:22.544Z,43.22
2023-04-26T07:16:24.744Z,42.86
2023-04-26T07:17:27.464Z,43.07
2023-04-26T07:18:29.570Z,42.40
2023-04-26T07:19:31.790Z,42.00
2023-04-26T07:20:33.901Z,41.48
2023-04-26T07:21:36.160Z,40.74
2023-04-26T07:22:38.993Z,41.60
2023-04-26T07:23:41.091Z,41.72
2023-04-26T07:24:43.196Z,41.58
2023-04-26T07:25:45.816Z,41.87
2023-04-26T07:26:48.000Z,42.34
2023-04-26T07:27:51.712Z,41.64
2023-04-26T07:28:53.914Z,40.68
2023-04-26T07:29:58.573Z,40.72
2023-04-26T07:31:01.356Z,40.67
2023-04-26T07:32:03.897Z,38.95
2023-04-26T07:33:06.320Z,38.74
2023-04-26T07:34:08.584Z,39.54
2023-04-26T07:35:16.098Z,39.52
2023-04-26T07:36:18.487Z,39.59
2023-04-26T07:37:21.074Z,39.39
2023-04-26T07:38:23.978Z,39.15
2023-04-26T07:39:26.120Z,39.36
2023-04-26T07:40:29.309Z,37.51
2023-04-26T07:41:31.702Z,37.93
2023-04-26T07:42:33.768Z,37.18
2023-04-26T07:43:36.055Z,37.22
2023-04-26T07:44:38.162Z,37.51
2023-04-26T07:45:40.455Z,38.11
2023-04-26T07:46:42.731Z,38.04
2023-04-26T07:47:45.169Z,38.06
2023-04-26T07:48:47.320Z,37.39
2023-04-26T07:49:53.635Z,37.33
2023-04-26T07:50:56.021Z,37.85
2023-04-26T07:52:01.978Z,37.55
2023-04-26T07:53:04.108Z,37.20
2023-04-26T07:54:06.289Z,38.26
2023-04-26T07:55:08.806Z,36.51
2023-04-26T07:56:11.004Z,37.30
2023-04-26T07:57:13.107Z,37.19
2023-04-26T07:58:15.161Z,37.23
2023-04-26T07:59:17.272Z,36.64
2023-04-26T08:00:19.989Z,36.51
2023-04-26T08:01:22.265Z,36.80
2023-04-26T08:02:36.864Z,37.58
2023-04-26T08:03:45.560Z,37.84
2023-04-26T08:04:50.676Z,38.32
2023-04-26T08:05:54.119Z,38.15
2023-04-26T08:06:56.946Z,37.63
2023-04-26T08:08:00.421Z,36.92
2023-04-26T08:09:03.247Z,37.49
2023-04-26T08:10:06.147Z,37.30
2023-04-26T08:11:08.743Z,36.18
2023-04-26T08:12:13.875Z,36.47
2023-04-26T08:13:16.062Z,37.16
2023-04-26T08:14:18.256Z,36.65
2023-04-26T08:15:20.674Z,36.45
2023-04-26T08:16:22.864Z,37.05
2023-04-26T08:17:25.047Z,37.07
2023-04-26T08:18:27.296Z,36.88
2023-04-26T08:19:31.720Z,36.63
2023-04-26T08:20:33.854Z,37.14
2023-04-26T08:21:35.936Z,37.30
2023-04-26T08:22:38.036Z,37.13
2023-04-26T08:23:40.146Z,37.40
2023-04-26T08:24:42.430Z,37.23
2023-04-26T08:25:46.025Z,37.19
2023-04-26T08:26:49.868Z,36.88
2023-04-26T08:27:52.565Z,36.59
2023-04-26T08:28:54.776Z,36.95
2023-04-26T08:29:56.984Z,36.49
2023-04-26T08:30:59.201Z,36.67
2023-04-26T08:32:01.343Z,36.69
2023-04-26T08:33:03.614Z,36.73
2023-04-26T08:34:06.128Z,36.54
2023-04-26T08:35:09.646Z,36.52
2023-04-26T08:36:12.831Z,36.95
2023-04-26T08:37:14.968Z,36.87
2023-04-26T08:38:17.150Z,36.14
2023-04-26T08:39:19.251Z,36.03
2023-04-26T08:40:23.995Z,35.84
2023-04-26T08:41:26.042Z,36.62
2023-04-26T08:42:28.817Z,36.07
2023-04-26T08:43:30.970Z,36.40
2023-04-26T08:44:35.512Z,36.84
2023-04-26T08:45:38.657Z,36.84
2023-04-26T08:47:03.119Z,35.76
2023-04-26T08:48:10.509Z,35.93
2023-04-26T08:49:44.225Z,35.60
2023-04-26T08:50:46.835Z,35.85
2023-04-26T08:51:50.654Z,36.14
2023-04-26T08:52:53.015Z,35.80
2023-04-26T08:53:55.845Z,35.89
2023-04-26T08:54:59.224Z,35.42
2023-04-26T08:56:02.405Z,35.73
2023-04-26T08:57:04.645Z,34.83
2023-04-26T08:58:07.696Z,33.69
2023-04-26T08:59:10.200Z,32.46
2023-04-26T09:00:13.700Z,32.72
2023-04-26T09:01:17.154Z,32.33
2023-04-26T09:02:20.955Z,32.06
2023-04-26T09:03:23.951Z,32.05
2023-04-26T09:04:26.548Z,31.20
2023-04-26T09:05:28.826Z,31.11
2023-04-26T09:06:31.298Z,30.57
2023-04-26T09:07:40.173Z,30.11
2023-04-26T09:08:43.093Z,29.92
2023-04-26T09:09:48.071Z,30.07
2023-04-26T09:10:50.177Z,30.20
2023-04-26T09:11:59.994Z,30.62
2023-04-26T09:13:02.161Z,30.18
2023-04-26T09:14:04.247Z,29.98
2023-04-26T09:15:10.594Z,29.78
2023-04-26T09:16:12.742Z,29.88
2023-04-26T09:17:37.752Z,29.88
2023-04-26T09:18:52.723Z,29.37
2023-04-26T09:19:55.442Z,29.35
2023-04-26T09:21:06.366Z,29.15
2023-04-26T09:22:09.218Z,28.52
2023-04-26T09:23:11.474Z,28.18
2023-04-26T09:24:14.115Z,28.17
2023-04-26T09:25:20.020Z,28.18
2023-04-26T09:26:22.518Z,28.15
2023-04-26T09:27:38.619Z,28.65
2023-04-26T09:28:40.687Z,28.26
2023-04-26T09:30:09.625Z,28.76
2023-04-26T09:31:12.307Z,28.69
2023-04-26T09:32:14.530Z,29.27
2023-04-26T09:33:16.839Z,28.58
2023-04-26T09:34:19.898Z,28.61
2023-04-26T09:35:29.046Z,28.83
2023-04-26T09:36:31.877Z,28.50
2023-04-26T09:37:34.547Z,27.84
2023-04-26T09:38:42.418Z,29.27
2023-04-26T09:39:44.516Z,29.59
2023-04-26T09:40:48.775Z,30.58
2023-04-26T09:41:50.938Z,31.21
2023-04-26T09:43:04.259Z,30.18
2023-04-26T09:44:06.400Z,29.71
2023-04-26T09:45:08.995Z,29.28
2023-04-26T09:46:11.086Z,28.48
2023-04-26T09:47:13.337Z,28.08
2023-04-26T09:48:26.650Z,27.73
2023-04-26T09:49:42.982Z,26.99
2023-04-26T09:50:48.752Z,26.93
2023-04-26T09:52:00.629Z,26.67
2023-04-26T09:53:02.732Z,26.72
2023-04-26T09:54:04.927Z,26.24
2023-04-26T09:55:07.393Z,26.14
2023-04-26T09:56:14.230Z,25.88
2023-04-26T09:57:17.982Z,27.01
2023-04-26T09:58:20.302Z,27.53
2023-04-26T09:59:22.436Z,27.91
2023-04-26T10:00:25.590Z,29.25
2023-04-26T10:01:35.084Z,29.69
2023-04-26T10:02:37.725Z,29.82
2023-04-26T10:03:41.840Z,28.91
2023-04-26T10:04:49.050Z,28.54
2023-04-26T10:05:51.369Z,28.28
2023-04-26T10:06:53.671Z,28.40
2023-04-26T10:07:55.829Z,29.14
2023-04-26T10:08:58.057Z,29.57
2023-04-26T10:10:00.366Z,28.33
2023-04-26T10:11:07.653Z,27.69
2023-04-26T10:12:11.756Z,27.08
2023-04-26T10:13:15.566Z,27.05
2023-04-26T10:14:18.040Z,27.14
2023-04-26T10:15:20.212Z,26.96
2023-04-26T10:16:22.670Z,27.13
2023-04-26T10:17:24.938Z,27.71
2023-04-26T10:18:27.048Z,27.43
2023-04-26T10:19:29.613Z,26.81
2023-04-26T10:20:32.005Z,26.15
2023-04-26T10:21:37.197Z,26.35
2023-04-26T10:22:47.068Z,26.94
2023-04-26T10:23:49.660Z,26.66
2023-04-26T10:24:52.680Z,27.48
2023-04-26T10:25:55.861Z,28.20
2023-04-26T10:27:03.112Z,27.65
2023-04-26T10:28:05.702Z,28.02
2023-04-26T10:29:08.197Z,28.60
2023-04-26T10:30:17.002Z,28.12
2023-04-26T10:31:19.207Z,28.51
2023-04-26T10:32:22.202Z,28.73
2023-04-26T10:33:27.948Z,28.34
2023-04-26T10:34:31.712Z,26.61
2023-04-26T10:35:35.900Z,26.65
2023-04-26T10:37:13.825Z,25.54
2023-04-26T10:38:16.601Z,27.14
2023-04-26T10:39:21.944Z,26.13
2023-04-26T10:40:33.835Z,26.64
2023-04-26T10:41:37.112Z,27.22
2023-04-26T10:42:41.449Z,27.16
2023-04-26T10:43:43.731Z,27.35
2023-04-26T10:44:45.951Z,27.78
2023-04-26T10:45:48.898Z,27.69
2023-04-26T10:46:52.359Z,27.16
2023-04-26T10:48:28.490Z,25.77
2023-04-26T10:49:45.169Z,23.63
2023-04-26T10:51:00.271Z,23.65
2023-04-26T10:52:29.728Z,24.02
2023-04-26T10:53:32.798Z,24.17
2023-04-26T10:54:51.535Z,24.93
2023-04-26T10:55:54.394Z,23.17
2023-04-26T10:56:57.421Z,22.91
2023-04-26T10:57:59.600Z,23.29
2023-04-26T11:00:27.949Z,24.23
2023-04-26T11:01:32.158Z,23.88
2023-04-26T11:02:53.372Z,23.48
2023-04-26T11:03:59.156Z,24.25
2023-04-26T11:05:04.259Z,24.48
2023-04-26T11:06:10.046Z,23.49
2023-04-26T11:07:13.943Z,23.40
2023-04-26T11:08:32.264Z,23.43
2023-04-26T11:09:38.249Z,24.48
2023-04-26T11:10:41.116Z,25.35
2023-04-26T11:11:53.625Z,26.28
2023-04-26T11:13:06.005Z,26.83
2023-04-26T11:14:09.674Z,26.90
2023-04-26T11:15:12.789Z,26.33
2023-04-26T11:16:16.289Z,26.56
2023-04-26T11:17:18.505Z,25.97
2023-04-26T11:18:21.544Z,25.51
2023-04-26T11:19:23.660Z,24.78
2023-04-26T11:20:29.961Z,23.85
2023-04-26T11:21:32.770Z,23.42
2023-04-26T11:22:35.235Z,22.87
2023-04-26T11:23:37.643Z,23.26
2023-04-26T11:24:39.740Z,23.86
2023-04-26T11:25:42.023Z,23.64
2023-04-26T11:26:51.550Z,24.42
2023-04-26T11:28:12.237Z,24.63
2023-04-26T11:29:19.506Z,24.74
2023-04-26T11:30:21.741Z,25.75
2023-04-26T11:31:24.972Z,26.17
2023-04-26T11:32:27.158Z,26.84
2023-04-26T11:33:29.309Z,27.16
2023-04-26T11:34:35.240Z,28.34
2023-04-26T11:35:39.113Z,28.64
2023-04-26T11:36:41.230Z,29.71
2023-04-26T11:37:45.706Z,29.18
2023-04-26T11:38:47.827Z,28.98
2023-04-26T11:39:51.333Z,28.79
2023-04-26T11:40:59.727Z,29.08
2023-04-26T11:42:06.871Z,29.38
2023-04-26T11:43:09.877Z,28.98
2023-04-26T11:44:12.742Z,28.74
2023-04-26T11:45:17.937Z,29.32
2023-04-26T11:46:20.895Z,28.45
2023-04-26T11:47:23.610Z,27.46
2023-04-26T11:48:25.834Z,26.77
2023-04-26T11:49:28.437Z,26.13
2023-04-26T11:50:32.282Z,26.03
2023-04-26T11:51:34.534Z,26.30
2023-04-26T11:52:37.844Z,26.21
2023-04-26T11:53:41.976Z,26.68
2023-04-26T11:54:44.478Z,26.94
2023-04-26T11:55:46.614Z,27.06
2023-04-26T11:56:48.728Z,27.48
2023-04-26T11:57:51.017Z,27.29
2023-04-26T11:58:53.551Z,27.47
2023-04-26T12:00:08.867Z,27.29
2023-04-26T12:01:10.950Z,27.74
2023-04-26T12:02:13.275Z,27.38
2023-04-26T12:03:16.401Z,28.02
2023-04-26T12:04:19.223Z,28.15
2023-04-26T12:05:23.085Z,27.88
2023-04-26T12:06:33.867Z,28.16
2023-04-26T12:07:39.203Z,28.46
2023-04-26T12:08:41.506Z,28.75
2023-04-26T12:09:43.843Z,28.95
2023-04-26T12:10:46.831Z,28.98
2023-04-26T12:12:02.933Z,28.97
2023-04-26T12:13:05.054Z,28.38
2023-04-26T12:14:09.871Z,27.96
2023-04-26T12:15:13.933Z,27.86
2023-04-26T12:17:22.912Z,28.16
2023-04-26T12:18:32.466Z,27.89
2023-04-26T12:19:38.278Z,26.12
2023-04-26T12:20:42.812Z,25.33
2023-04-26T12:21:45.043Z,25.16
2023-04-26T12:23:14.305Z,25.49
2023-04-26T12:24:33.404Z,26.63
2023-04-26T12:25:37.336Z,27.38
2023-04-26T12:26:45.461Z,28.47
2023-04-26T12:27:47.573Z,28.84
2023-04-26T12:28:49.705Z,29.34
2023-04-26T12:29:51.982Z,28.66
2023-04-26T12:30:54.048Z,28.53
2023-04-26T12:31:57.138Z,28.85
2023-04-26T12:33:09.191Z,28.06
2023-04-26T12:34:18.499Z,28.87
2023-04-26T12:35:20.664Z,28.88
2023-04-26T12:36:22.762Z,28.76
2023-04-26T12:37:24.875Z,28.36
2023-04-26T12:38:27.003Z,27.90
2023-04-26T12:39:29.100Z,27.90
2023-04-26T12:40:31.717Z,28.07
2023-04-26T12:41:33.911Z,27.22
2023-04-26T12:42:36.519Z,26.53
2023-04-26T12:43:38.586Z,25.14
2023-04-26T12:44:40.712Z,24.78
2023-04-26T12:45:42.869Z,24.11
2023-04-26T12:46:45.133Z,23.10
2023-04-26T12:47:47.453Z,22.09
2023-04-26T12:48:49.576Z,21.30
2023-04-26T12:49:52.369Z,21.38
2023-04-26T12:50:54.535Z,21.63
2023-04-26T12:51:56.954Z,22.70
2023-04-26T12:52:59.230Z,23.43
2023-04-26T12:54:01.390Z,24.93
2023-04-26T12:55:05.110Z,26.24
2023-04-26T12:56:07.417Z,26.82
2023-04-26T12:57:09.885Z,26.65
2023-04-26T12:58:12.170Z,27.33
2023-04-26T12:59:14.776Z,27.57
2023-04-26T13:00:21.913Z,27.80
2023-04-26T13:01:24.077Z,27.34
2023-04-26T13:02:26.527Z,27.36
2023-04-26T13:03:29.211Z,26.75
2023-04-26T13:04:31.582Z,26.44
2023-04-26T13:05:33.990Z,26.26
2023-04-26T13:06:36.415Z,25.09
2023-04-26T13:07:43.422Z,24.56
2023-04-26T13:08:45.518Z,23.19
2023-04-26T13:09:48.916Z,22.72
2023-04-26T13:10:51.449Z,22.76
2023-04-26T13:11:53.598Z,22.78
2023-04-26T13:12:56.057Z,22.52
2023-04-26T13:13:58.420Z,23.43
2023-04-26T13:15:01.084Z,24.28
2023-04-26T13:16:03.244Z,24.56
2023-04-26T13:17:06.148Z,25.79
2023-04-26T13:18:08.342Z,25.44
2023-04-26T13:19:11.359Z,26.08
2023-04-26T13:20:14.012Z,25.14
2023-04-26T13:21:16.141Z,25.27
2023-04-26T13:22:18.569Z,24.24
2023-04-26T13:23:20.847Z,24.93
2023-04-26T13:24:22.991Z,25.69
2023-04-26T13:25:25.107Z,25.32
2023-04-26T13:26:28.007Z,25.22
2023-04-26T13:27:31.628Z,24.46
2023-04-26T13:28:36.162Z,24.42
2023-04-26T13:29:38.283Z,22.87
2023-04-26T13:30:40.361Z,21.97
2023-04-26T13:31:43.248Z,21.59
2023-04-26T13:32:45.711Z,21.36
2023-04-26T13:33:49.317Z,21.25
2023-04-26T13:34:51.851Z,21.86
2023-04-26T13:35:53.923Z,21.56
2023-04-26T13:36:57.065Z,21.08
2023-04-26T13:37:59.152Z,20.90
2023-04-26T13:39:01.224Z,21.04
2023-04-26T13:40:04.649Z,20.83
2023-04-26T13:41:07.562Z,20.87
2023-04-26T13:42:09.718Z,20.38